Time;durP1;ratioP1;P1;durP2;ratioP2;P2;SDS_P1;SDS_P2;PMS_P1;PMS_P2;Temp;Humidity;BMP_temperature;BMP_pressure;BME280_temperature;BME280_humidity;BME280_pressure;Samples;Min_cycle;Max_cycle;Signal;HPM_P1;HPM_P2
2023/07/05 00:00:58;;;;;;;5.32;2.88;;;10.70;99.90;;;;;;4853400;29;20038;-63
2023/07/05 00:03:27;;;;;;;5.00;2.88;;;10.60;99.90;;;;;;4869164;29;20138;-65
2023/07/05 00:05:55;;;;;;;9.52;3.72;;;10.60;99.90;;;;;;4859727;29;20458;-64
2023/07/05 00:08:23;;;;;;;9.07;4.28;;;10.60;99.90;;;;;;4859190;29;20061;-60
2023/07/05 00:11:03;;;;;;;7.30;3.10;;;10.60;99.90;;;;;;4854705;29;20058;-62
2023/07/05 00:13:31;;;;;;;7.18;3.20;;;10.60;99.90;;;;;;4863785;29;20068;-65
2023/07/05 00:15:59;;;;;;;9.27;3.65;;;10.50;99.90;;;;;;4854755;29;20057;-66
2023/07/05 00:18:28;;;;;;;6.20;2.97;;;10.50;99.90;;;;;;4858766;29;20053;-66
2023/07/05 00:21:00;;;;;;;11.38;3.47;;;10.50;99.90;;;;;;4864884;29;20053;-65
2023/07/05 00:23:31;;;;;;;6.63;3.30;;;10.50;99.90;;;;;;4861410;29;20057;-64
2023/07/05 00:25:59;;;;;;;7.18;3.20;;;10.40;99.90;;;;;;4854134;29;20479;-62
2023/07/05 00:28:27;;;;;;;13.95;3.13;;;10.40;99.90;;;;;;4844405;29;20498;-62
2023/07/05 00:30:55;;;;;;;7.75;3.67;;;10.40;99.90;;;;;;4853768;29;20053;-63
2023/07/05 00:33:23;;;;;;;10.07;4.15;;;10.30;99.90;;;;;;4862601;29;20057;-67
2023/07/05 00:35:53;;;;;;;7.55;3.72;;;10.30;99.90;;;;;;4862818;29;20053;-64
2023/07/05 00:38:22;;;;;;;7.57;2.90;;;10.30;99.90;;;;;;4855729;29;20049;-62
2023/07/05 00:40:51;;;;;;;4.85;3.38;;;10.30;99.90;;;;;;4871353;29;20045;-63
2023/07/05 00:43:19;;;;;;;8.02;3.40;;;10.20;99.90;;;;;;4856663;29;20053;-64
2023/07/05 00:45:51;;;;;;;7.78;3.97;;;10.20;99.90;;;;;;4870064;29;20418;-61
2023/07/05 00:48:40;;;;;;;6.05;3.30;;;10.20;99.90;;;;;;4851102;29;20060;-61
2023/07/05 00:51:19;;;;;;;9.45;3.40;;;10.10;99.90;;;;;;4857472;29;20053;-63
2023/07/05 00:53:48;;;;;;;5.18;3.38;;;10.10;99.90;;;;;;4856437;29;20060;-63
2023/07/05 00:56:33;;;;;;;9.65;2.97;;;10.10;99.90;;;;;;4857436;29;20479;-64
2023/07/05 00:59:02;;;;;;;10.75;3.10;;;10.10;99.90;;;;;;4870464;29;20049;-61
2023/07/05 01:01:30;;;;;;;7.40;3.13;;;10.10;99.90;;;;;;4840599;29;20053;-67
2023/07/05 01:03:59;;;;;;;7.60;3.45;;;10.00;99.90;;;;;;4850126;29;20057;-61
2023/07/05 01:06:27;;;;;;;4.20;2.60;;;10.00;99.90;;;;;;4850843;29;20517;-62
2023/07/05 01:08:56;;;;;;;9.82;2.60;;;10.00;99.90;;;;;;4856650;29;20049;-61
2023/07/05 01:11:49;;;;;;;11.93;3.03;;;9.90;99.90;;;;;;4869943;29;20045;-61
2023/07/05 01:14:30;;;;;;;4.25;2.70;;;9.90;99.90;;;;;;4855339;29;20045;-63
2023/07/05 01:17:10;;;;;;;5.82;2.72;;;9.90;99.90;;;;;;4853326;29;20042;-64
2023/07/05 01:19:57;;;;;;;4.68;2.63;;;9.90;99.90;;;;;;4856979;29;20060;-63
2023/07/05 01:22:53;;;;;;;12.75;2.67;;;9.80;99.90;;;;;;4868724;29;20057;-62
2023/07/05 01:25:48;;;;;;;3.53;2.25;;;9.80;99.90;;;;;;4855248;29;20084;-60
2023/07/05 01:28:40;;;;;;;6.53;2.50;;;9.80;99.90;;;;;;4856764;29;20403;-67
2023/07/05 01:31:29;;;;;;;4.50;2.50;;;9.80;99.90;;;;;;4851226;29;20503;-63
2023/07/05 01:34:10;;;;;;;4.10;2.38;;;9.70;99.90;;;;;;4851309;29;20041;-61
2023/07/05 01:36:38;;;;;;;8.50;3.10;;;9.70;99.90;;;;;;4855410;29;20391;-59
2023/07/05 01:39:07;;;;;;;5.70;2.20;;;9.70;99.90;;;;;;4852682;29;20395;-59
2023/07/05 01:41:35;;;;;;;4.63;2.13;;;9.60;99.90;;;;;;4874277;29;20064;-59
2023/07/05 01:44:08;;;;;;;6.85;2.60;;;9.60;99.90;;;;;;4872425;29;20045;-64
2023/07/05 01:47:07;;;;;;;7.22;2.70;;;9.60;99.90;;;;;;4857311;29;20495;-67
2023/07/05 01:49:57;;;;;;;7.63;2.53;;;9.60;99.90;;;;;;4855438;29;20557;-68
2023/07/05 01:52:34;;;;;;;3.40;2.15;;;9.60;99.90;;;;;;4858403;29;20053;-67
2023/07/05 01:55:10;;;;;;;6.25;2.30;;;9.50;99.90;;;;;;4861299;29;20525;-66
2023/07/05 01:57:54;;;;;;;7.30;2.40;;;9.50;99.90;;;;;;4858466;29;20055;-68
2023/07/05 02:00:25;;;;;;;12.40;2.83;;;9.50;99.90;;;;;;4857947;29;20053;-66
2023/07/05 02:03:01;;;;;;;7.80;2.45;;;9.50;99.90;;;;;;4858278;29;20062;-68
2023/07/05 02:05:33;;;;;;;5.90;2.05;;;9.50;99.90;;;;;;4856383;29;20053;-68
2023/07/05 02:08:01;;;;;;;7.15;3.28;;;9.50;99.90;;;;;;4873597;29;20049;-66
2023/07/05 02:10:30;;;;;;;7.63;3.35;;;9.50;99.90;;;;;;4863607;29;20049;-66
2023/07/05 02:13:00;;;;;;;4.10;2.20;;;9.50;99.90;;;;;;4877412;29;20052;-67
2023/07/05 02:15:28;;;;;;;7.35;2.72;;;9.40;99.90;;;;;;4876618;29;20508;-67
2023/07/05 02:17:56;;;;;;;7.28;2.50;;;9.40;99.90;;;;;;4868042;29;20056;-67
2023/07/05 02:20:24;;;;;;;4.63;2.90;;;9.40;99.90;;;;;;4842741;29;20052;-68
2023/07/05 02:22:52;;;;;;;4.63;2.70;;;9.40;99.90;;;;;;4859422;29;20061;-67
2023/07/05 02:25:21;;;;;;;3.88;2.30;;;9.30;99.90;;;;;;4857999;29;20053;-67
2023/07/05 02:27:49;;;;;;;7.18;2.55;;;9.40;99.90;;;;;;4859180;29;20049;-67
2023/07/05 02:30:18;;;;;;;6.30;2.35;;;9.30;99.90;;;;;;4857247;29;20418;-65
2023/07/05 02:32:46;;;;;;;8.05;2.83;;;10.00;99.90;;;;;;4858613;29;20068;-67
2023/07/05 02:35:14;;;;;;;5.07;2.50;;;9.30;99.90;;;;;;4857325;29;20060;-67
2023/07/05 02:37:42;;;;;;;8.40;3.33;;;9.30;99.90;;;;;;4873323;29;20065;-67
2023/07/05 02:40:11;;;;;;;5.97;2.35;;;9.40;99.90;;;;;;4860643;29;20060;-67
2023/07/05 02:42:38;;;;;;;4.45;3.53;;;9.40;99.90;;;;;;4859427;29;20055;-67
2023/07/05 02:45:07;;;;;;;11.32;3.72;;;9.50;99.90;;;;;;4858899;29;20061;-65
2023/07/05 02:47:36;;;;;;;4.70;2.55;;;9.50;99.90;;;;;;4859107;29;20053;-67
2023/07/05 02:50:04;;;;;;;6.63;3.83;;;9.60;99.90;;;;;;4858967;29;20053;-66
2023/07/05 02:52:32;;;;;;;7.00;3.05;;;9.70;99.90;;;;;;4858754;29;20062;-66
2023/07/05 02:55:00;;;;;;;5.82;2.67;;;9.80;99.90;;;;;;4854681;29;20061;-68
2023/07/05 02:57:28;;;;;;;6.88;3.25;;;9.80;99.90;;;;;;4839519;29;20054;-67
2023/07/05 02:59:56;;;;;;;9.18;3.28;;;9.80;99.90;;;;;;4852583;29;20065;-66
2023/07/05 03:02:24;;;;;;;5.72;3.10;;;9.90;99.90;;;;;;4858871;29;20053;-66
2023/07/05 03:04:53;;;;;;;8.13;2.88;;;9.90;99.90;;;;;;4856928;29;20510;-68
2023/07/05 03:07:20;;;;;;;4.47;2.80;;;9.90;99.90;;;;;;4857646;29;20045;-67
2023/07/05 03:09:48;;;;;;;6.07;2.90;;;9.90;99.90;;;;;;4855193;29;20065;-64
2023/07/05 03:12:17;;;;;;;5.88;3.08;;;10.00;99.90;;;;;;4877306;29;20057;-64
2023/07/05 03:14:45;;;;;;;11.55;3.60;;;9.90;99.90;;;;;;4877271;29;20049;-63
2023/07/05 03:17:12;;;;;;;6.10;3.47;;;10.00;99.90;;;;;;4872477;29;20050;-64
2023/07/05 03:19:41;;;;;;;8.18;3.05;;;10.00;99.90;;;;;;4862234;29;20049;-64
2023/07/05 03:22:08;;;;;;;6.85;3.22;;;10.00;99.90;;;;;;4858902;29;20417;-64
2023/07/05 03:24:36;;;;;;;5.63;2.80;;;10.00;99.90;;;;;;4862166;29;20526;-64
2023/07/05 03:27:05;;;;;;;9.43;3.97;;;10.00;99.90;;;;;;4876485;29;20506;-64
2023/07/05 03:29:32;;;;;;;9.20;3.03;;;10.00;99.90;;;;;;4861024;29;20068;-67
2023/07/05 03:32:01;;;;;;;6.90;3.25;;;10.00;99.90;;;;;;4860653;29;20041;-66
2023/07/05 03:34:29;;;;;;;5.55;3.10;;;10.00;99.90;;;;;;4845195;29;20054;-67
2023/07/05 03:36:57;;;;;;;8.80;3.08;;;10.00;99.90;;;;;;4860205;29;20482;-67
2023/07/05 03:39:25;;;;;;;11.32;3.22;;;10.00;99.90;;;;;;4861795;29;20072;-67
2023/07/05 03:41:53;;;;;;;13.73;3.85;;;10.10;99.90;;;;;;4863908;29;20064;-66
2023/07/05 03:44:22;;;;;;;9.45;4.38;;;10.10;99.90;;;;;;4861167;29;20053;-62
2023/07/05 03:46:50;;;;;;;9.50;3.83;;;10.10;99.90;;;;;;4861643;29;20549;-62
2023/07/05 03:49:18;;;;;;;10.75;3.65;;;10.10;99.90;;;;;;4861675;29;20056;-60
2023/07/05 03:51:46;;;;;;;11.38;4.32;;;10.20;99.90;;;;;;4853108;29;20053;-64
2023/07/05 03:54:14;;;;;;;10.50;3.55;;;10.20;99.90;;;;;;4856755;29;20060;-60
2023/07/05 03:56:42;;;;;;;11.00;4.38;;;10.20;99.90;;;;;;4858434;29;20059;-60
2023/07/05 03:59:10;;;;;;;7.20;3.33;;;10.30;99.90;;;;;;4861525;29;20049;-62
2023/07/05 04:01:38;;;;;;;9.95;3.58;;;10.30;99.90;;;;;;4861508;29;20056;-61
2023/07/05 04:04:07;;;;;;;4.47;3.00;;;10.30;99.90;;;;;;4861249;29;20068;-60
2023/07/05 04:06:35;;;;;;;8.55;3.10;;;10.30;99.90;;;;;;4860373;29;20064;-60
2023/07/05 04:09:03;;;;;;;11.40;3.20;;;10.30;99.90;;;;;;4861561;29;20057;-60
2023/07/05 04:11:31;;;;;;;11.35;3.17;;;10.40;99.90;;;;;;4869596;29;20049;-60
2023/07/05 04:13:59;;;;;;;9.60;4.43;;;10.40;99.90;;;;;;4861462;29;20052;-61
2023/07/05 04:16:27;;;;;;;7.30;2.85;;;10.40;99.90;;;;;;4860532;29;20076;-64
2023/07/05 04:18:57;;;;;;;9.90;4.07;;;10.40;99.90;;;;;;4860873;29;20052;-63
2023/07/05 04:21:26;;;;;;;8.30;3.47;;;10.50;99.90;;;;;;4860788;29;20077;-64
2023/07/05 04:23:54;;;;;;;7.03;3.37;;;10.50;99.90;;;;;;4844920;29;20045;-65
2023/07/05 04:26:24;;;;;;;12.40;3.60;;;10.60;99.90;;;;;;4860392;29;20079;-65
2023/07/05 04:28:52;;;;;;;;;;;10.60;99.90;;;;;;4859846;29;20045;-62
2023/07/05 04:31:27;;;;;;;5.53;3.33;;;10.70;99.90;;;;;;4860285;29;19924;-66
2023/07/05 04:33:57;;;;;;;9.48;3.60;;;10.70;99.90;;;;;;4860677;29;20053;-63
2023/07/05 04:36:25;;;;;;;7.72;3.20;;;10.80;99.90;;;;;;4860863;29;20064;-64
2023/07/05 04:38:57;;;;;;;7.65;3.15;;;10.90;99.90;;;;;;4860560;29;20069;-63
2023/07/05 04:41:26;;;;;;;4.53;2.85;;;10.90;99.90;;;;;;4864548;29;20049;-63
2023/07/05 04:43:54;;;;;;;6.45;3.17;;;10.90;99.90;;;;;;4860045;29;20053;-65
2023/07/05 04:46:22;;;;;;;3.75;2.97;;;11.00;99.90;;;;;;4860654;29;20058;-65
2023/07/05 04:48:51;;;;;;;7.80;3.90;;;11.00;99.90;;;;;;4856747;29;20056;-62
2023/07/05 04:51:19;;;;;;;10.43;3.30;;;11.00;99.90;;;;;;4846111;29;20398;-63
2023/07/05 04:53:47;;;;;;;8.55;3.60;;;11.00;99.90;;;;;;4856069;29;20053;-65
2023/07/05 04:56:15;;;;;;;5.93;3.10;;;11.10;99.90;;;;;;4856771;29;20045;-63
2023/07/05 04:58:43;;;;;;;10.52;3.88;;;11.10;99.90;;;;;;4857097;29;20053;-62
2023/07/05 05:01:13;;;;;;;13.73;5.00;;;11.20;99.90;;;;;;4857164;29;20057;-62
2023/07/05 05:03:42;;;;;;;6.85;3.83;;;11.20;99.90;;;;;;4845858;29;20049;-62
2023/07/05 05:06:10;;;;;;;9.50;4.53;;;11.20;99.90;;;;;;4849705;29;20045;-64
2023/07/05 05:08:38;;;;;;;9.50;3.90;;;11.20;99.90;;;;;;4850140;29;20045;-61
2023/07/05 05:11:06;;;;;;;9.77;4.25;;;11.30;99.90;;;;;;4863628;29;20401;-60
2023/07/05 05:13:36;;;;;;;6.65;4.20;;;11.30;99.90;;;;;;4857816;29;20774;-65
2023/07/05 05:16:05;;;;;;;7.35;4.55;;;11.30;99.90;;;;;;4836815;29;20060;-61
2023/07/05 05:18:39;;;;;;;7.68;4.63;;;11.30;99.90;;;;;;4849266;29;20041;-61
2023/07/05 05:21:07;;;;;;;7.15;4.88;;;11.30;99.90;;;;;;4835279;29;20054;-60
2023/07/05 05:23:36;;;;;;;12.20;5.60;;;11.40;99.90;;;;;;4847342;29;20482;-62
2023/07/05 05:26:04;;;;;;;13.18;6.45;;;11.40;99.90;;;;;;4852461;29;20058;-62
2023/07/05 05:28:31;;;;;;;14.77;4.75;;;11.40;99.90;;;;;;4849712;29;20053;-61
2023/07/05 05:31:07;;;;;;;12.43;4.82;;;11.50;99.90;;;;;;4854557;29;20486;-63
2023/07/05 05:33:38;;;;;;;8.73;4.72;;;11.50;99.90;;;;;;4855439;29;20042;-62
2023/07/05 05:36:06;;;;;;;8.77;4.35;;;11.60;99.90;;;;;;4866949;29;20049;-62
2023/07/05 05:38:35;;;;;;;10.38;4.88;;;11.60;99.90;;;;;;4854454;29;20391;-63
2023/07/05 05:41:10;;;;;;;12.90;5.90;;;11.60;99.90;;;;;;4864563;29;20053;-64
2023/07/05 05:43:39;;;;;;;10.65;4.93;;;11.70;99.90;;;;;;4855481;29;20069;-62
2023/07/05 05:46:07;;;;;;;8.98;4.28;;;11.70;99.90;;;;;;4856814;29;20410;-61
2023/07/05 05:48:38;;;;;;;10.45;4.72;;;11.70;99.90;;;;;;4853058;29;20521;-62
2023/07/05 05:51:05;;;;;;;8.35;4.88;;;11.70;99.90;;;;;;4838504;29;20050;-60
2023/07/05 05:53:34;;;;;;;11.70;5.03;;;11.70;99.90;;;;;;4851294;29;20608;-63
2023/07/05 05:56:01;;;;;;;7.95;4.65;;;11.60;99.90;;;;;;4856454;29;20497;-62
2023/07/05 05:58:29;;;;;;;9.50;5.18;;;11.60;99.90;;;;;;4856656;29;20486;-67
2023/07/05 06:01:01;;;;;;;8.43;5.13;;;11.60;99.90;;;;;;4853612;29;20053;-64
2023/07/05 06:03:30;;;;;;;12.23;5.35;;;11.60;99.90;;;;;;4849669;29;20049;-62
2023/07/05 06:05:58;;;;;;;9.75;4.88;;;11.70;99.90;;;;;;4843938;29;20058;-65
2023/07/05 06:08:27;;;;;;;13.13;4.95;;;11.70;99.90;;;;;;4846064;29;20045;-62
2023/07/05 06:10:57;;;;;;;8.90;4.65;;;11.70;99.90;;;;;;4859272;29;20064;-68
2023/07/05 06:13:27;;;;;;;10.73;5.20;;;11.80;99.90;;;;;;4852020;29;20050;-68
2023/07/05 06:15:56;;;;;;;10.73;4.22;;;11.80;99.90;;;;;;4852340;29;20073;-69
2023/07/05 06:18:40;;;;;;;8.82;3.90;;;11.90;99.90;;;;;;4865850;29;20037;-67
2023/07/05 06:21:10;;;;;;;14.00;4.68;;;12.00;99.90;;;;;;4854613;29;20054;-69
2023/07/05 06:23:38;;;;;;;6.68;3.75;;;12.10;99.90;;;;;;4851214;29;20417;-67
2023/07/05 06:26:06;;;;;;;10.82;4.55;;;12.30;99.90;;;;;;4853849;29;20434;-68
2023/07/05 06:28:34;;;;;;;11.15;4.68;;;12.50;99.90;;;;;;4854871;29;20060;-69
2023/07/05 06:31:12;;;;;;;14.35;3.85;;;12.50;99.90;;;;;;4856209;29;20050;-66
2023/07/05 06:33:40;;;;;;;8.30;3.65;;;12.60;99.90;;;;;;4854179;29;20054;-69
2023/07/05 06:36:08;;;;;;;8.70;3.80;;;12.70;99.90;;;;;;4866203;29;20064;-67
2023/07/05 06:38:36;;;;;;;9.68;4.22;;;12.80;99.90;;;;;;4854312;29;20061;-62
2023/07/05 06:41:10;;;;;;;13.98;5.38;;;12.80;99.90;;;;;;4859435;29;20049;-61
2023/07/05 06:43:37;;;;;;;15.13;4.40;;;12.80;99.90;;;;;;4850711;29;20050;-61
2023/07/05 06:46:05;;;;;;;12.65;3.78;;;12.80;99.90;;;;;;4846078;29;20041;-63
2023/07/05 06:48:33;;;;;;;9.82;4.40;;;12.90;99.90;;;;;;4851656;29;20709;-60
2023/07/05 06:51:01;;;;;;;8.20;3.90;;;12.90;99.90;;;;;;4834150;29;20052;-63
2023/07/05 06:53:29;;;;;;;11.82;3.80;;;12.90;99.90;;;;;;4847843;29;20064;-62
2023/07/05 06:56:14;;;;;;;11.00;3.45;;;13.00;99.90;;;;;;4853051;29;20346;-60
2023/07/05 06:58:42;;;;;;;8.98;3.08;;;13.00;99.90;;;;;;4854560;29;20490;-60
2023/07/05 07:01:10;;;;;;;7.72;2.95;;;13.00;99.90;;;;;;4853846;29;20049;-63
2023/07/05 07:03:40;;;;;;;9.65;3.80;;;13.10;99.90;;;;;;4853602;29;20053;-63
2023/07/05 07:06:08;;;;;;;9.82;3.33;;;13.10;99.90;;;;;;4837071;29;20434;-61
2023/07/05 07:08:39;;;;;;;7.70;2.88;;;13.20;99.90;;;;;;4842253;29;20116;-60
2023/07/05 07:11:10;;;;;;;7.72;3.33;;;13.30;99.90;;;;;;4855335;29;20056;-65
2023/07/05 07:13:39;;;;;;;5.07;3.13;;;13.30;99.90;;;;;;4854988;29;20046;-62
2023/07/05 07:16:25;;;;;;;6.53;2.83;;;13.50;99.90;;;;;;4839512;29;20414;-62
2023/07/05 07:18:55;;;;;;;8.75;3.45;;;13.60;99.90;;;;;;4861002;29;20045;-63
2023/07/05 07:21:23;;;;;;;;;;;13.70;99.90;;;;;;4850973;29;20065;-63
2023/07/05 07:23:52;;;;;;;8.98;2.97;;;13.70;99.90;;;;;;4848841;29;19932;-63
2023/07/05 07:26:23;;;;;;;7.13;3.08;;;13.80;99.90;;;;;;4835621;29;20445;-61
2023/07/05 07:28:54;;;;;;;8.45;3.45;;;13.90;99.90;;;;;;4864699;29;20064;-62
2023/07/05 07:31:25;;;;;;;8.32;2.53;;;13.80;99.90;;;;;;4854549;29;20406;-62
2023/07/05 07:33:54;;;;;;;5.40;3.00;;;13.80;99.90;;;;;;4845411;29;20057;-60
2023/07/05 07:36:25;;;;;;;7.55;2.53;;;13.80;99.90;;;;;;4851451;29;20824;-65
2023/07/05 07:38:55;;;;;;;7.22;2.50;;;13.80;99.90;;;;;;4851048;29;20050;-62
2023/07/05 07:41:35;;;;;;;11.68;3.55;;;13.90;99.90;;;;;;4863306;29;20447;-64
2023/07/05 07:44:08;;;;;;;10.73;3.38;;;13.90;99.90;;;;;;4859010;29;20490;-61
2023/07/05 07:46:38;;;;;;;9.95;3.35;;;13.90;99.90;;;;;;4858763;29;20429;-62
2023/07/05 07:49:08;;;;;;;5.63;3.33;;;13.90;99.90;;;;;;4858248;29;20048;-61
2023/07/05 07:51:39;;;;;;;7.18;3.50;;;14.00;99.90;;;;;;4857439;29;20064;-64
2023/07/05 07:54:15;;;;;;;4.97;2.20;;;13.90;99.90;;;;;;4852075;29;20057;-62
2023/07/05 07:56:45;;;;;;;5.90;2.72;;;14.00;99.90;;;;;;4858088;29;20053;-63
2023/07/05 07:59:16;;;;;;;7.15;2.20;;;14.10;99.90;;;;;;4856782;29;20049;-63
2023/07/05 08:01:44;;;;;;;17.40;2.42;;;14.10;99.90;;;;;;4856998;29;20410;-63
2023/07/05 08:04:14;;;;;;;5.78;2.53;;;14.20;99.90;;;;;;4855703;29;20053;-62
2023/07/05 08:06:45;;;;;;;6.55;1.92;;;14.10;99.90;;;;;;4849312;29;20076;-63
2023/07/05 08:09:17;;;;;;;5.63;2.15;;;14.10;99.90;;;;;;4852791;29;20060;-64
2023/07/05 08:11:45;;;;;;;4.22;1.80;;;14.20;99.90;;;;;;4868127;29;20533;-61
2023/07/05 08:14:15;;;;;;;4.47;2.53;;;14.30;99.90;;;;;;4857856;29;20505;-62
2023/07/05 08:16:44;;;;;;;6.30;1.63;;;14.40;99.90;;;;;;4857105;29;20065;-65
2023/07/05 08:19:12;;;;;;;5.00;1.75;;;14.50;99.90;;;;;;4856383;29;20068;-63
2023/07/05 08:21:42;;;;;;;7.13;1.95;;;14.60;99.90;;;;;;4857944;29;20068;-62
2023/07/05 08:24:10;;;;;;;4.30;1.50;;;14.60;99.90;;;;;;4852945;29;20049;-64
2023/07/05 08:26:54;;;;;;;5.60;2.08;;;14.60;99.90;;;;;;4839373;29;20049;-62
2023/07/05 08:29:22;;;;;;;3.83;1.70;;;14.70;99.90;;;;;;4856124;29;20058;-61
2023/07/05 08:31:50;;;;;;;4.35;2.28;;;14.80;99.90;;;;;;4857084;29;20050;-62
2023/07/05 08:34:18;;;;;;;3.85;2.20;;;14.80;99.90;;;;;;4856209;29;20042;-67
2023/07/05 08:36:46;;;;;;;5.97;2.05;;;14.90;99.90;;;;;;4857367;29;20072;-63
2023/07/05 08:39:15;;;;;;;5.30;2.30;;;15.00;99.90;;;;;;4853623;29;20435;-67
2023/07/05 08:41:43;;;;;;;10.13;2.42;;;15.10;99.90;;;;;;4837129;29;20237;-67
2023/07/05 08:44:16;;;;;;;6.00;1.70;;;15.10;99.90;;;;;;4856825;29;20072;-66
2023/07/05 08:46:48;;;;;;;3.75;1.65;;;15.20;99.90;;;;;;4857433;29;20053;-67
2023/07/05 08:49:26;;;;;;;3.72;1.90;;;15.40;99.90;;;;;;4849395;29;20041;-66
2023/07/05 08:51:56;;;;;;;11.63;3.00;;;15.60;99.90;;;;;;4838827;29;20054;-67
2023/07/05 08:54:31;;;;;;;5.43;2.10;;;15.70;99.90;;;;;;4850990;29;20075;-67
2023/07/05 08:57:05;;;;;;;2.67;2.00;;;15.70;99.90;;;;;;4838981;29;20403;-67
2023/07/05 08:59:47;;;;;;;4.60;1.73;;;15.60;99.90;;;;;;4839094;29;20070;-64
2023/07/05 09:02:19;;;;;;;7.85;2.17;;;15.50;99.90;;;;;;4852471;29;20068;-61
2023/07/05 09:04:49;;;;;;;2.83;1.98;;;15.50;99.90;;;;;;4856782;29;20053;-61
2023/07/05 09:07:32;;;;;;;;;;;15.50;99.90;;;;;;4853652;29;20057;-60
2023/07/05 09:10:19;;;;;;;2.60;1.40;;;15.70;99.90;;;;;;4848722;29;19931;-60
2023/07/05 09:12:53;;;;;;;4.43;1.33;;;16.00;99.90;;;;;;4844891;29;20058;-59
2023/07/05 09:15:32;;;;;;;2.05;0.93;;;16.20;99.90;;;;;;4856822;29;20050;-59
2023/07/05 09:18:09;;;;;;;1.98;0.90;;;16.30;99.90;;;;;;4856251;29;20053;-59
2023/07/05 09:21:16;;;;;;;2.35;0.95;;;16.30;99.90;;;;;;4838451;29;20053;-59
2023/07/05 09:23:51;;;;;;;1.67;0.80;;;16.20;99.90;;;;;;4904529;29;20504;-59
2023/07/05 09:26:34;;;;;;;4.38;1.25;;;16.20;99.90;;;;;;4909059;29;20200;-59
2023/07/05 09:29:21;;;;;;;1.80;1.10;;;16.30;99.90;;;;;;4867738;29;20056;-61
2023/07/05 09:31:50;;;;;;;1.95;1.08;;;16.50;99.90;;;;;;4855815;29;20055;-59
2023/07/05 09:34:40;;;;;;;3.63;0.68;;;16.70;99.90;;;;;;4855979;29;20049;-59
2023/07/05 09:37:25;;;;;;;2.90;0.80;;;16.70;99.90;;;;;;4855195;29;20049;-60
2023/07/05 09:40:25;;;;;;;1.55;0.90;;;16.70;99.90;;;;;;4855764;29;20409;-60
2023/07/05 09:43:00;;;;;;;1.70;0.88;;;16.50;99.90;;;;;;4859065;29;20057;-59
2023/07/05 09:45:28;;;;;;;2.67;1.10;;;16.30;99.90;;;;;;4856348;29;20054;-59
2023/07/05 09:48:04;;;;;;;1.88;0.98;;;16.20;99.90;;;;;;4856122;29;20053;-59
2023/07/05 09:50:32;;;;;;;4.05;2.13;;;16.10;99.90;;;;;;4856507;29;20534;-61
2023/07/05 09:53:16;;;;;;;5.57;2.00;;;16.00;99.90;;;;;;4855077;29;20505;-60
2023/07/05 09:56:18;;;;;;;1.20;1.10;;;15.90;99.90;;;;;;4847002;29;20074;-60
2023/07/05 09:58:48;;;;;;;4.20;1.98;;;15.80;99.90;;;;;;4878090;29;20053;-59
2023/07/05 10:01:22;;;;;;;3.92;2.05;;;15.80;99.90;;;;;;4856395;29;20052;-62
2023/07/05 10:03:57;;;;;;;8.70;2.67;;;15.80;99.90;;;;;;4853063;29;20383;-60
2023/07/05 10:06:28;;;;;;;5.00;2.40;;;15.80;99.90;;;;;;4843895;29;20065;-59
2023/07/05 10:09:00;;;;;;;3.33;2.40;;;15.90;99.90;;;;;;4849193;29;20653;-60
2023/07/05 10:11:34;;;;;;;5.28;2.78;;;15.80;99.90;;;;;;4867174;29;20045;-60
2023/07/05 10:14:10;;;;;;;5.68;3.17;;;15.80;99.90;;;;;;4858269;29;20526;-60
2023/07/05 10:16:53;;;;;;;5.15;2.72;;;15.80;99.90;;;;;;4835857;29;20491;-63
2023/07/05 10:19:25;;;;;;;2.58;2.13;;;15.60;99.90;;;;;;4854306;29;20053;-60
2023/07/05 10:22:17;;;;;;;6.80;2.65;;;15.50;99.90;;;;;;4856037;29;20056;-59
2023/07/05 10:24:51;;;;;;;3.78;2.30;;;15.40;99.90;;;;;;4855365;29;20061;-59
2023/07/05 10:27:31;;;;;;;10.80;2.25;;;15.30;99.90;;;;;;4858304;29;20050;-58
2023/07/05 10:30:20;;;;;;;2.53;1.95;;;15.30;99.90;;;;;;4861713;29;20626;-60
2023/07/05 10:33:16;;;;;;;5.75;2.15;;;15.30;99.90;;;;;;4861934;29;20049;-58
2023/07/05 10:35:57;;;;;;;2.13;1.50;;;15.30;99.90;;;;;;4843423;29;20053;-59
2023/07/05 10:38:28;;;;;;;4.32;1.85;;;15.40;99.90;;;;;;4852396;29;20045;-60
2023/07/05 10:41:19;;;;;;;4.45;1.42;;;15.40;99.90;;;;;;4853958;29;20515;-60
2023/07/05 10:43:57;;;;;;;4.45;1.58;;;15.40;99.90;;;;;;4856030;29;20422;-59
2023/07/05 10:46:26;;;;;;;1.65;1.20;;;15.20;99.90;;;;;;4861854;29;20068;-60
2023/07/05 10:48:55;;;;;;;2.85;1.52;;;15.10;99.90;;;;;;4860995;29;20050;-60
2023/07/05 10:51:30;;;;;;;7.63;1.40;;;15.10;99.90;;;;;;4861604;29;20045;-61
2023/07/05 10:54:41;;;;;;;5.40;2.10;;;15.00;99.90;;;;;;4860103;29;20057;-60
2023/07/05 10:57:34;;;;;;;3.08;1.48;;;15.00;99.90;;;;;;4845611;29;20042;-62
2023/07/05 11:00:28;;;;;;;3.72;1.27;;;15.10;99.90;;;;;;4861851;29;20046;-59
2023/07/05 11:03:18;;;;;;;3.42;1.40;;;15.30;99.90;;;;;;4860575;29;20053;-60
2023/07/05 11:05:52;;;;;;;2.40;1.10;;;15.50;99.90;;;;;;4861104;29;20080;-62
2023/07/05 11:08:41;;;;;;;4.07;1.10;;;15.80;99.90;;;;;;4860197;29;20053;-59
2023/07/05 11:11:15;;;;;;;2.15;1.00;;;16.10;99.90;;;;;;4855531;29;20050;-59
2023/07/05 11:13:46;;;;;;;2.78;1.27;;;16.30;99.90;;;;;;4854820;29;20446;-67
2023/07/05 11:16:23;;;;;;;4.60;1.38;;;16.50;99.90;;;;;;4860652;29;20069;-66
2023/07/05 11:19:09;;;;;;;3.20;1.15;;;16.80;99.90;;;;;;4861350;29;20060;-65
2023/07/05 11:21:42;;;;;;;2.08;1.15;;;17.00;99.90;;;;;;4861502;29;20061;-65
2023/07/05 11:24:12;;;;;;;2.75;1.10;;;17.30;99.90;;;;;;4861229;29;20068;-62
2023/07/05 11:26:42;;;;;;;4.35;1.20;;;17.40;99.90;;;;;;4849983;29;20050;-64
2023/07/05 11:29:36;;;;;;;;;;;17.40;99.90;;;;;;4858914;29;20054;-67
2023/07/05 11:32:08;;;;;;;2.67;1.20;;;17.50;99.90;;;;;;4862452;29;19924;-60
2023/07/05 11:34:40;;;;;;;4.90;1.63;;;17.60;99.90;;;;;;4860515;29;20049;-60
2023/07/05 11:37:10;;;;;;;2.70;1.25;;;17.80;99.90;;;;;;4859280;29;20065;-60
2023/07/05 11:39:48;;;;;;;3.40;1.17;;;17.80;99.90;;;;;;4855642;29;20058;-60
2023/07/05 11:42:16;;;;;;;8.57;1.60;;;17.80;99.90;;;;;;4852989;29;20056;-59
2023/07/05 11:44:55;;;;;;;2.92;1.67;;;17.70;99.90;;;;;;4858384;29;20053;-58
2023/07/05 11:47:23;;;;;;;2.53;1.20;;;17.60;99.90;;;;;;4856043;29;20060;-58
2023/07/05 11:50:09;;;;;;;1.40;1.20;;;17.50;99.90;;;;;;4858570;29;20045;-59
2023/07/05 11:52:47;;;;;;;3.17;1.35;;;17.40;99.90;;;;;;4857414;29;20060;-59
2023/07/05 11:55:31;;;;;;;4.32;1.67;;;17.40;99.90;;;;;;4857222;29;20501;-60
2023/07/05 11:58:26;;;;;;;3.53;1.23;;;17.60;99.90;;;;;;4846366;29;20053;-59
2023/07/05 12:00:58;;;;;;;3.45;1.20;;;17.90;99.90;;;;;;4839660;29;20053;-60
2023/07/05 12:03:30;;;;;;;3.38;1.33;;;18.20;99.90;;;;;;4849030;29;20057;-60
2023/07/05 12:06:06;;;;;;;3.55;1.25;;;18.50;99.90;;;;;;4856588;29;20053;-59
2023/07/05 12:08:37;;;;;;;1.85;0.98;;;18.70;99.90;;;;;;4856570;29;20486;-59
2023/07/05 12:11:05;;;;;;;3.10;1.00;;;18.80;99.90;;;;;;4858282;29;20053;-60
2023/07/05 12:13:35;;;;;;;2.47;1.70;;;18.90;99.90;;;;;;4849679;29;20092;-60
2023/07/05 12:16:06;;;;;;;1.60;0.70;;;18.80;99.90;;;;;;4857097;29;20045;-59
2023/07/05 12:18:34;;;;;;;2.33;0.90;;;18.80;99.90;;;;;;4857970;29;20049;-59
2023/07/05 12:21:06;;;;;;;2.00;0.70;;;18.90;99.90;;;;;;4857631;29;20054;-65
2023/07/05 12:23:36;;;;;;;0.98;0.57;;;19.10;99.90;;;;;;4855778;29;20065;-65
2023/07/05 12:26:11;;;;;;;1.38;0.60;;;19.70;99.90;;;;;;4853742;29;20070;-64
2023/07/05 12:28:42;;;;;;;2.38;0.90;;;20.10;99.90;;;;;;4850482;29;20049;-64
2023/07/05 12:31:12;;;;;;;0.40;0.25;;;20.30;99.90;;;;;;4856522;29;20634;-66
2023/07/05 12:33:40;;;;;;;1.90;0.77;;;20.40;99.90;;;;;;4871507;29;20682;-62
2023/07/05 12:36:12;;;;;;;1.30;0.57;;;20.30;99.90;;;;;;4857374;29;20671;-62
2023/07/05 12:38:43;;;;;;;0.73;0.43;;;20.10;99.90;;;;;;4856385;29;20052;-63
2023/07/05 12:41:20;;;;;;;2.28;0.50;;;19.80;99.90;;;;;;4861729;29;20056;-59
2023/07/05 12:43:56;;;;;;;2.78;1.08;;;19.60;99.90;;;;;;4851029;29;20045;-62
2023/07/05 12:46:26;;;;;;;2.63;0.60;;;19.30;99.90;;;;;;4857959;29;20061;-60
2023/07/05 12:48:53;;;;;;;0.50;0.50;;;19.00;99.90;;;;;;4856020;29;20064;-59
2023/07/05 12:51:28;;;;;;;5.47;1.17;;;18.90;99.90;;;;;;4856878;29;20041;-58
2023/07/05 12:54:00;;;;;;;1.52;0.90;;;18.70;99.90;;;;;;4855894;29;20045;-59
2023/07/05 12:56:34;;;;;;;3.53;0.80;;;18.50;99.90;;;;;;4852849;29;20050;-59
2023/07/05 12:59:21;;;;;;;2.90;0.65;;;18.40;99.90;;;;;;4853125;29;20049;-59
2023/07/05 13:02:05;;;;;;;0.70;0.70;;;18.30;99.90;;;;;;4857111;29;20482;-59
2023/07/05 13:04:37;;;;;;;1.05;0.68;;;18.30;99.90;;;;;;4855955;29;20053;-58
2023/07/05 13:07:06;;;;;;;2.35;0.90;;;18.20;99.90;;;;;;4855849;29;20045;-59
2023/07/05 13:09:36;;;;;;;1.58;0.70;;;18.10;99.90;;;;;;4856743;29;20057;-58
2023/07/05 13:12:07;;;;;;;2.70;0.77;;;18.00;99.90;;;;;;4849080;29;20057;-60
2023/07/05 13:14:37;;;;;;;4.38;0.80;;;18.00;99.90;;;;;;4849768;29;20054;-58
2023/07/05 13:17:16;;;;;;;2.53;0.90;;;17.90;99.90;;;;;;4854876;29;20108;-59